createdAt,value
2022-08-03T00:00:02.171Z,19.31
2022-08-03T00:02:40.146Z,19.25
2022-08-03T00:05:08.681Z,19.26
2022-08-03T00:07:36.264Z,19.21
2022-08-03T00:10:03.912Z,19.24
2022-08-03T00:12:31.235Z,19.12
2022-08-03T00:14:59.104Z,19.23
2022-08-03T00:17:26.772Z,19.04
2022-08-03T00:19:54.535Z,19.26
2022-08-03T00:22:21.932Z,19.21
2022-08-03T00:24:52.162Z,19.17
2022-08-03T00:27:44.451Z,19.18
2022-08-03T00:30:12.236Z,19.16
2022-08-03T00:32:45.066Z,19.01
2022-08-03T00:35:26.619Z,19.19
2022-08-03T00:38:01.131Z,19.13
2022-08-03T00:40:29.629Z,19.15
2022-08-03T00:42:59.514Z,19.08
2022-08-03T00:45:29.829Z,19.14
2022-08-03T00:47:58.200Z,19.13
2022-08-03T00:50:28.040Z,19.17
2022-08-03T00:52:57.495Z,19.13
2022-08-03T00:55:51.725Z,19.03
2022-08-03T00:58:19.181Z,18.99
2022-08-03T01:00:46.625Z,18.76
2022-08-03T01:03:14.027Z,19.05
2022-08-03T01:05:56.416Z,18.83
2022-08-03T01:08:38.776Z,18.90
2022-08-03T01:11:15.965Z,18.91
2022-08-03T01:14:18.023Z,18.80
2022-08-03T01:17:22.632Z,18.33
2022-08-03T01:19:54.788Z,18.69
2022-08-03T01:23:01.496Z,18.65
2022-08-03T01:26:08.342Z,18.64
2022-08-03T01:29:29.162Z,18.67
2022-08-03T01:32:59.232Z,18.49
2022-08-03T01:34:59.419Z,18.35
2022-08-03T01:37:35.650Z,18.35
2022-08-03T01:40:08.721Z,18.48
2022-08-03T01:43:03.797Z,18.49
2022-08-03T01:45:34.246Z,18.28
2022-08-03T01:48:02.954Z,18.51
2022-08-03T01:50:32.053Z,18.52
2022-08-03T01:53:25.466Z,18.49
2022-08-03T01:55:56.255Z,18.53
2022-08-03T01:58:25.455Z,18.53
2022-08-03T02:00:55.235Z,18.15
2022-08-03T02:03:24.939Z,18.32
2022-08-03T02:06:17.949Z,18.14
2022-08-03T02:08:45.093Z,17.99
2022-08-03T02:11:13.687Z,18.03
2022-08-03T02:13:41.693Z,17.96
2022-08-03T02:16:10.736Z,18.09
2022-08-03T02:18:40.721Z,18.06
2022-08-03T02:21:11.503Z,17.70
2022-08-03T02:24:24.482Z,17.95
2022-08-03T02:26:54.670Z,18.08
2022-08-03T02:29:40.243Z,17.95
2022-08-03T02:32:37.043Z,17.93
2022-08-03T02:35:08.843Z,18.02
2022-08-03T02:37:49.946Z,18.21
2022-08-03T02:40:45.171Z,18.19
2022-08-03T02:43:18.524Z,18.07
2022-08-03T02:45:48.607Z,17.99
2022-08-03T02:48:23.512Z,17.65
2022-08-03T02:50:57.227Z,17.82
2022-08-03T02:53:27.793Z,17.61
2022-08-03T02:55:57.061Z,17.60
2022-08-03T02:58:26.114Z,17.61
2022-08-03T03:00:55.354Z,17.77
2022-08-03T03:03:50.208Z,17.77
2022-08-03T03:06:20.106Z,17.88
2022-08-03T03:08:53.082Z,17.91
2022-08-03T03:11:23.999Z,17.94
2022-08-03T03:13:52.073Z,17.96
2022-08-03T03:16:20.312Z,17.81
2022-08-03T03:18:49.980Z,17.83
2022-08-03T03:21:20.152Z,17.81
2022-08-03T03:23:48.683Z,17.82
2022-08-03T03:26:42.499Z,17.66
2022-08-03T03:29:10.513Z,17.58
2022-08-03T03:32:03.526Z,17.72
2022-08-03T03:34:36.927Z,17.46
2022-08-03T03:37:29.226Z,17.62
2022-08-03T03:39:56.992Z,17.62
2022-08-03T03:42:25.952Z,17.63
2022-08-03T03:44:53.624Z,17.48
2022-08-03T03:47:32.294Z,17.65
2022-08-03T03:52:54.079Z,17.70
2022-08-03T03:55:21.635Z,17.71
2022-08-03T03:57:49.656Z,17.74
2022-08-03T04:00:19.229Z,17.34
2022-08-03T04:02:47.773Z,17.76
2022-08-03T04:05:58.462Z,17.78
2022-08-03T04:08:51.141Z,17.76
2022-08-03T04:11:30.123Z,17.76
2022-08-03T04:14:11.260Z,17.81
2022-08-03T04:16:43.880Z,17.85
2022-08-03T04:19:25.384Z,17.87
2022-08-03T04:21:58.403Z,17.88
2022-08-03T04:24:33.585Z,17.75
2022-08-03T04:27:05.491Z,17.71
2022-08-03T04:29:38.694Z,18.05
2022-08-03T04:32:18.198Z,17.87
2022-08-03T04:34:47.183Z,17.95
2022-08-03T04:37:27.537Z,18.15
2022-08-03T04:40:46.679Z,18.18
2022-08-03T04:43:17.265Z,18.05
2022-08-03T04:45:49.847Z,18.07
2022-08-03T04:48:17.603Z,18.32
2022-08-03T04:50:47.070Z,18.32
2022-08-03T04:53:15.043Z,18.41
2022-08-03T04:56:07.494Z,18.12
2022-08-03T04:58:34.886Z,18.46
2022-08-03T05:01:06.079Z,18.52
2022-08-03T05:03:33.867Z,18.31
2022-08-03T05:06:10.973Z,18.58
2022-08-03T05:08:46.371Z,18.59
2022-08-03T05:11:17.233Z,18.71
2022-08-03T05:13:45.812Z,18.63
2022-08-03T05:16:14.036Z,18.67
2022-08-03T05:18:43.536Z,18.91
2022-08-03T05:21:14.335Z,18.74
2022-08-03T05:23:42.407Z,19.08
2022-08-03T05:26:12.328Z,19.09
2022-08-03T05:28:51.212Z,19.05
2022-08-03T05:31:19.593Z,19.18
2022-08-03T05:33:49.055Z,19.22
2022-08-03T05:36:17.121Z,19.28
2022-08-03T05:38:45.622Z,19.32
2022-08-03T05:41:20.304Z,19.24
2022-08-03T05:43:55.379Z,19.54
2022-08-03T05:46:23.342Z,19.28
2022-08-03T05:48:51.425Z,19.58
2022-08-03T05:51:20.303Z,19.58
2022-08-03T05:53:48.193Z,19.62
2022-08-03T05:56:17.023Z,19.66
2022-08-03T05:58:46.634Z,19.45
2022-08-03T06:01:15.701Z,19.58
2022-08-03T06:03:43.906Z,19.67
2022-08-03T06:06:12.488Z,19.78
2022-08-03T06:08:41.584Z,20.05
2022-08-03T06:11:34.479Z,20.10
2022-08-03T06:14:01.708Z,20.08
2022-08-03T06:17:19.039Z,20.10
2022-08-03T06:19:47.248Z,20.16
2022-08-03T06:22:15.423Z,20.00
2022-08-03T06:24:53.213Z,20.31
2022-08-03T06:27:49.232Z,20.41
2022-08-03T06:30:21.010Z,20.45
2022-08-03T06:32:51.826Z,20.33
2022-08-03T06:35:20.677Z,20.57
2022-08-03T06:37:50.522Z,20.50
2022-08-03T06:40:43.590Z,20.72
2022-08-03T06:43:12.870Z,20.70
2022-08-03T06:45:43.657Z,20.72
2022-08-03T06:48:15.445Z,20.69
2022-08-03T06:50:44.425Z,20.75
2022-08-03T06:53:18.206Z,20.74
2022-08-03T06:56:13.709Z,20.62
2022-08-03T06:58:41.850Z,20.65
2022-08-03T07:01:59.333Z,20.93
2022-08-03T07:04:27.401Z,20.70
2022-08-03T07:06:55.321Z,20.97
2022-08-03T07:09:23.000Z,21.09
2022-08-03T07:11:50.374Z,20.91
2022-08-03T07:14:18.134Z,21.09
2022-08-03T07:16:45.664Z,21.16
2022-08-03T07:19:19.236Z,21.19
2022-08-03T07:21:47.371Z,21.34
2022-08-03T07:24:14.898Z,21.26
2022-08-03T07:26:42.164Z,21.41
2022-08-03T07:29:15.268Z,21.28
2022-08-03T07:31:47.003Z,21.43
2022-08-03T07:34:14.967Z,21.27
2022-08-03T07:36:42.458Z,21.52
2022-08-03T07:39:18.114Z,21.48
2022-08-03T07:41:46.786Z,21.42
2022-08-03T07:44:18.283Z,21.70
2022-08-03T07:46:45.640Z,21.76
2022-08-03T07:49:13.243Z,21.63
2022-08-03T07:51:40.758Z,21.59
2022-08-03T07:54:12.008Z,21.57
2022-08-03T07:56:47.626Z,21.78
2022-08-03T07:59:15.264Z,21.67
2022-08-03T08:01:43.134Z,21.62
2022-08-03T08:04:35.876Z,21.66
2022-08-03T08:07:03.857Z,21.87
2022-08-03T08:09:32.125Z,21.74
2022-08-03T08:12:00.308Z,21.87
2022-08-03T08:14:27.537Z,21.85
2022-08-03T08:16:56.978Z,21.91
2022-08-03T08:19:24.878Z,21.87
2022-08-03T08:22:02.561Z,21.83
2022-08-03T08:24:30.886Z,22.00
2022-08-03T08:26:59.309Z,22.05
2022-08-03T08:29:27.521Z,22.08
2022-08-03T08:31:55.592Z,22.19
2022-08-03T08:34:24.024Z,22.14
2022-08-03T08:39:49.167Z,22.10
2022-08-03T08:42:17.901Z,22.17
2022-08-03T08:44:45.652Z,22.07
2022-08-03T08:47:15.509Z,22.47
2022-08-03T08:50:33.794Z,22.42
2022-08-03T08:53:27.840Z,22.41
2022-08-03T08:56:00.990Z,22.42
2022-08-03T08:58:34.733Z,22.50
2022-08-03T09:01:08.668Z,22.48
2022-08-03T09:03:37.277Z,22.43
2022-08-03T09:06:05.397Z,22.66
2022-08-03T09:08:39.685Z,22.71
2022-08-03T09:11:07.900Z,22.74
2022-08-03T09:13:35.962Z,22.78
2022-08-03T09:16:29.768Z,22.84
2022-08-03T09:19:25.695Z,22.84
2022-08-03T09:22:13.854Z,22.86
2022-08-03T09:25:27.188Z,22.88
2022-08-03T09:28:06.038Z,22.87
2022-08-03T09:30:35.366Z,22.88
2022-08-03T09:33:06.588Z,23.01
2022-08-03T09:35:53.486Z,22.99
2022-08-03T09:38:28.842Z,23.06
2022-08-03T09:41:00.214Z,22.93
2022-08-03T09:43:46.839Z,23.13
2022-08-03T09:46:14.302Z,23.14
2022-08-03T09:48:41.733Z,23.13
2022-08-03T09:51:14.480Z,23.04
2022-08-03T09:54:28.828Z,23.25
2022-08-03T09:56:57.025Z,23.40
2022-08-03T09:59:29.946Z,23.40
2022-08-03T10:02:00.040Z,23.61
2022-08-03T10:04:30.733Z,23.66
2022-08-03T10:07:16.834Z,23.57
2022-08-03T10:10:30.403Z,23.82
2022-08-03T10:12:48.310Z,23.83
2022-08-03T10:16:22.020Z,23.84
2022-08-03T10:18:04.972Z,23.82
2022-08-03T10:20:37.032Z,23.76
2022-08-03T10:23:33.378Z,23.68
2022-08-03T10:26:29.501Z,23.50
2022-08-03T10:29:22.784Z,23.56
2022-08-03T10:31:58.438Z,23.41
2022-08-03T10:34:35.486Z,23.33
2022-08-03T10:37:10.211Z,23.29
2022-08-03T10:39:37.705Z,23.20
2022-08-03T10:42:06.337Z,23.13
2022-08-03T10:44:42.759Z,22.99
2022-08-03T10:47:11.288Z,23.01
2022-08-03T10:49:41.648Z,22.87
2022-08-03T10:52:13.637Z,23.08
2022-08-03T10:56:06.843Z,23.08
2022-08-03T10:59:00.719Z,23.20
2022-08-03T11:01:58.733Z,23.15
2022-08-03T11:04:30.455Z,23.00
2022-08-03T11:07:19.913Z,23.21
2022-08-03T11:09:56.120Z,23.11
2022-08-03T11:12:33.127Z,23.25
2022-08-03T11:15:04.603Z,23.23
2022-08-03T11:17:46.408Z,23.21
2022-08-03T11:20:59.788Z,23.16
2022-08-03T11:24:03.470Z,22.99
2022-08-03T11:26:33.925Z,23.03
2022-08-03T11:29:27.667Z,23.15
2022-08-03T11:31:55.031Z,23.03
2022-08-03T11:34:22.525Z,23.17
2022-08-03T11:37:29.959Z,23.22
2022-08-03T11:40:47.064Z,23.27
2022-08-03T11:43:30.643Z,23.24
2022-08-03T11:46:02.835Z,23.28
2022-08-03T11:48:39.778Z,23.13
2022-08-03T11:51:20.007Z,23.19
2022-08-03T11:53:48.539Z,23.30
2022-08-03T11:56:16.823Z,23.20
2022-08-03T11:59:01.306Z,23.32
2022-08-03T12:01:42.346Z,23.27
2022-08-03T12:04:51.501Z,23.50
2022-08-03T12:07:24.438Z,23.55
2022-08-03T12:10:12.533Z,23.71
2022-08-03T12:12:46.182Z,23.68
2022-08-03T12:15:14.365Z,23.87
2022-08-03T12:17:42.068Z,24.09
2022-08-03T12:20:10.714Z,24.21
2022-08-03T12:22:39.805Z,24.08
2022-08-03T12:25:10.505Z,24.52
2022-08-03T12:27:38.022Z,24.21
2022-08-03T12:30:11.985Z,24.31
2022-08-03T12:32:39.417Z,24.39
2022-08-03T12:35:07.307Z,24.30
2022-08-03T12:37:36.875Z,24.41
2022-08-03T12:40:10.413Z,24.33
2022-08-03T12:43:12.821Z,24.56
2022-08-03T12:45:40.852Z,24.58
2022-08-03T12:48:13.891Z,24.72
2022-08-03T12:50:41.626Z,24.75
2022-08-03T12:53:11.635Z,24.90
2022-08-03T12:58:34.822Z,25.06
2022-08-03T13:02:17.899Z,25.11
2022-08-03T13:05:16.783Z,25.11
2022-08-03T13:07:46.575Z,24.98
2022-08-03T13:11:04.399Z,25.29
2022-08-03T13:13:41.280Z,25.07
2022-08-03T13:16:08.536Z,25.28
2022-08-03T13:18:35.968Z,25.32
2022-08-03T13:21:03.654Z,25.52
2022-08-03T13:23:31.009Z,25.36
2022-08-03T13:25:58.974Z,24.77
2022-08-03T13:28:26.541Z,25.94
2022-08-03T13:30:55.332Z,25.85
2022-08-03T13:33:24.971Z,26.07
2022-08-03T13:35:52.803Z,26.22
2022-08-03T13:38:21.597Z,26.13
2022-08-03T13:40:54.856Z,25.97
2022-08-03T13:43:23.432Z,26.31
2022-08-03T13:45:54.819Z,26.39
2022-08-03T13:48:36.961Z,26.42
2022-08-03T13:51:21.759Z,26.40
2022-08-03T13:53:52.395Z,26.44
2022-08-03T13:56:50.758Z,26.53
2022-08-03T13:59:18.404Z,26.43
2022-08-03T14:01:55.370Z,26.57
2022-08-03T14:04:26.633Z,26.48
2022-08-03T14:06:54.272Z,26.65
2022-08-03T14:09:46.202Z,26.63
2022-08-03T14:12:13.824Z,26.48
2022-08-03T14:15:10.290Z,26.66
2022-08-03T14:18:02.589Z,26.73
2022-08-03T14:20:38.868Z,26.53
2022-08-03T14:23:16.767Z,26.64
2022-08-03T14:25:51.883Z,26.43
2022-08-03T14:28:23.051Z,26.42
2022-08-03T14:30:56.519Z,26.35
2022-08-03T14:33:24.523Z,26.16
2022-08-03T14:35:52.572Z,26.19
2022-08-03T14:38:21.439Z,26.08
2022-08-03T14:40:48.991Z,25.99
2022-08-03T14:43:21.972Z,25.92
2022-08-03T14:45:53.522Z,26.02
2022-08-03T14:50:29.166Z,25.77
2022-08-03T14:51:10.680Z,25.70
2022-08-03T14:54:04.638Z,25.90
2022-08-03T14:56:32.238Z,25.81
2022-08-03T14:58:59.566Z,25.76
2022-08-03T15:02:02.240Z,25.48
2022-08-03T15:04:39.862Z,25.39
2022-08-03T15:07:08.244Z,25.53
2022-08-03T15:09:36.397Z,25.49
2022-08-03T15:12:05.310Z,25.39
2022-08-03T15:14:33.391Z,25.24
2022-08-03T15:17:06.779Z,25.18
2022-08-03T15:20:04.060Z,24.94
2022-08-03T15:22:25.412Z,24.89
2022-08-03T15:26:29.553Z,24.75
2022-08-03T15:28:16.970Z,24.56
2022-08-03T15:30:45.285Z,24.91
2022-08-03T15:33:13.556Z,24.79
2022-08-03T15:35:42.305Z,24.24
2022-08-03T15:38:10.638Z,24.65
2022-08-03T15:40:38.882Z,24.18
2022-08-03T15:43:08.710Z,23.77
2022-08-03T15:45:37.151Z,24.60
2022-08-03T15:48:05.919Z,24.41
2022-08-03T15:50:34.303Z,24.03
2022-08-03T15:53:26.132Z,24.34
2022-08-03T15:56:19.875Z,24.30
2022-08-03T15:59:03.849Z,24.13
2022-08-03T16:01:35.698Z,23.94
2022-08-03T16:04:03.233Z,24.07
2022-08-03T16:06:35.073Z,23.87
2022-08-03T16:09:23.471Z,23.62
2022-08-03T16:12:00.005Z,23.80
2022-08-03T16:14:32.590Z,23.82
2022-08-03T16:17:04.100Z,23.71
2022-08-03T16:19:31.450Z,23.42
2022-08-03T16:22:00.188Z,23.48
2022-08-03T16:24:28.494Z,23.54
2022-08-03T16:26:56.774Z,23.65
2022-08-03T16:29:24.838Z,23.41
2022-08-03T16:31:52.884Z,23.00
2022-08-03T16:34:21.712Z,23.54
2022-08-03T16:36:49.143Z,23.08
2022-08-03T16:39:17.602Z,23.49
2022-08-03T16:41:54.315Z,23.44
2022-08-03T16:44:31.049Z,23.24
2022-08-03T16:46:59.145Z,23.18
2022-08-03T16:49:56.102Z,23.40
2022-08-03T16:52:16.455Z,23.38
2022-08-03T16:55:11.040Z,23.39
2022-08-03T16:57:59.549Z,23.34
2022-08-03T17:00:33.890Z,23.30
2022-08-03T17:03:29.074Z,23.30
2022-08-03T17:06:15.413Z,23.21
2022-08-03T17:08:43.599Z,23.31
2022-08-03T17:11:23.592Z,23.14
2022-08-03T17:13:52.774Z,23.11
2022-08-03T17:16:20.239Z,23.14
2022-08-03T17:19:20.982Z,23.21
2022-08-03T17:22:04.596Z,22.93
2022-08-03T17:24:35.569Z,23.19
2022-08-03T17:28:42.444Z,22.85
2022-08-03T17:30:13.369Z,23.11
2022-08-03T17:32:57.633Z,23.07
2022-08-03T17:35:56.569Z,22.97
2022-08-03T17:38:26.399Z,22.96
2022-08-03T17:44:28.860Z,22.76
2022-08-03T17:47:06.541Z,22.85
2022-08-03T17:49:40.219Z,22.82
2022-08-03T17:52:17.320Z,22.74
2022-08-03T17:55:55.442Z,22.75
2022-08-03T17:58:02.076Z,22.73
2022-08-03T18:00:54.737Z,22.63
2022-08-03T18:04:20.876Z,22.53
2022-08-03T18:07:00.123Z,22.53
2022-08-03T18:10:06.386Z,22.35
2022-08-03T18:12:32.470Z,22.14
2022-08-03T18:15:08.681Z,22.16
2022-08-03T18:17:55.837Z,22.11
2022-08-03T18:20:32.269Z,22.18
2022-08-03T18:23:04.798Z,22.15
2022-08-03T18:25:42.939Z,22.05
2022-08-03T18:28:23.122Z,21.87
2022-08-03T18:30:53.492Z,21.93
2022-08-03T18:34:19.599Z,21.89
2022-08-03T18:36:22.117Z,21.33
2022-08-03T18:39:01.727Z,21.70
2022-08-03T18:41:34.977Z,21.64
2022-08-03T18:44:08.323Z,21.72
2022-08-03T18:46:50.041Z,21.71
2022-08-03T18:49:30.119Z,21.64
2022-08-03T18:52:22.450Z,21.53
2022-08-03T18:55:08.447Z,21.50
2022-08-03T18:57:51.596Z,21.44
2022-08-03T19:00:24.551Z,20.91
2022-08-03T19:03:20.555Z,21.38
2022-08-03T19:06:02.631Z,21.28
2022-08-03T19:08:49.964Z,21.24
2022-08-03T19:11:29.803Z,21.13
2022-08-03T19:14:49.610Z,21.13
2022-08-03T19:17:21.232Z,20.80
2022-08-03T19:19:51.646Z,21.04
2022-08-03T19:22:27.219Z,21.06
2022-08-03T19:24:55.776Z,20.86
2022-08-03T19:27:28.555Z,20.79
2022-08-03T19:30:02.899Z,20.62
2022-08-03T19:32:33.163Z,20.50
2022-08-03T19:35:02.439Z,20.38
2022-08-03T19:37:39.847Z,20.00
2022-08-03T19:40:37.403Z,20.09
2022-08-03T19:43:53.856Z,19.76
2022-08-03T19:46:30.984Z,19.80
2022-08-03T19:49:15.123Z,19.87
2022-08-03T19:52:00.840Z,19.63
2022-08-03T19:55:00.511Z,19.92
2022-08-03T19:57:29.977Z,19.94
2022-08-03T19:59:59.796Z,19.94
2022-08-03T20:02:34.020Z,19.98
2022-08-03T20:05:27.625Z,19.95
2022-08-03T20:08:00.587Z,19.99
2022-08-03T20:10:30.418Z,19.98
2022-08-03T20:12:58.685Z,19.96
2022-08-03T20:18:17.723Z,19.85
2022-08-03T20:20:50.330Z,19.92
2022-08-03T20:23:20.371Z,19.93
2022-08-03T20:28:56.557Z,19.97
2022-08-03T20:31:32.399Z,19.92
2022-08-03T20:34:29.557Z,19.98
2022-08-03T20:37:21.911Z,19.98
2022-08-03T20:39:50.273Z,19.86
2022-08-03T20:42:21.738Z,19.86
2022-08-03T20:45:04.778Z,19.96
2022-08-03T20:47:36.246Z,19.72
2022-08-03T20:50:30.077Z,19.95
2022-08-03T20:52:59.093Z,19.88
2022-08-03T20:56:22.226Z,19.94
2022-08-03T20:58:51.731Z,19.92
2022-08-03T21:01:27.696Z,19.69
2022-08-03T21:03:55.933Z,19.70
2022-08-03T21:06:27.554Z,19.99
2022-08-03T21:09:05.649Z,19.86
2022-08-03T21:11:41.820Z,19.94
2022-08-03T21:13:03.792Z,19.95
2022-08-03T21:14:15.954Z,19.85
2022-08-03T21:16:46.650Z,19.66
2022-08-03T21:19:17.846Z,19.59
2022-08-03T21:21:48.266Z,19.66
2022-08-03T21:24:20.904Z,19.42
2022-08-03T21:27:14.222Z,19.55
2022-08-03T21:29:53.426Z,19.39
2022-08-03T21:32:32.368Z,19.27
2022-08-03T21:35:01.564Z,19.31
2022-08-03T21:37:32.192Z,19.16
2022-08-03T21:40:00.737Z,19.27
2022-08-03T21:42:29.826Z,19.24
2022-08-03T21:44:56.951Z,19.32
2022-08-03T21:47:25.876Z,19.22
2022-08-03T21:50:08.583Z,18.89
2022-08-03T21:52:46.278Z,19.15
2022-08-03T21:55:20.423Z,19.06
2022-08-03T21:57:53.948Z,18.96
2022-08-03T22:00:23.665Z,19.06
2022-08-03T22:02:55.384Z,19.06
2022-08-03T22:05:50.060Z,18.77
2022-08-03T22:08:19.420Z,19.07
2022-08-03T22:10:47.822Z,19.13
2022-08-03T22:13:43.179Z,19.15
2022-08-03T22:16:05.698Z,18.88
2022-08-03T22:21:37.004Z,19.04
2022-08-03T22:24:06.193Z,18.93
2022-08-03T22:26:35.895Z,18.52
2022-08-03T22:31:59.592Z,18.97
2022-08-03T22:34:28.795Z,18.96
2022-08-03T22:39:55.648Z,19.01
2022-08-03T22:42:24.595Z,19.04
2022-08-03T22:44:55.306Z,18.93
2022-08-03T22:47:24.118Z,19.04
2022-08-03T22:50:31.747Z,18.92
2022-08-03T22:52:43.848Z,19.08
2022-08-03T22:55:13.500Z,18.86
2022-08-03T22:57:56.054Z,19.10
2022-08-03T23:00:24.759Z,19.04
2022-08-03T23:02:55.053Z,19.14
2022-08-03T23:06:00.305Z,18.92
2022-08-03T23:08:56.189Z,19.14
2022-08-03T23:11:24.696Z,19.22
2022-08-03T23:13:54.515Z,19.18
2022-08-03T23:16:29.071Z,19.08
2022-08-03T23:18:59.741Z,19.10
2022-08-03T23:22:02.133Z,19.17
2022-08-03T23:25:00.071Z,19.16
2022-08-03T23:27:30.676Z,19.15
2022-08-03T23:30:00.307Z,19.08
2022-08-03T23:32:30.615Z,19.18
2022-08-03T23:35:19.544Z,19.25
2022-08-03T23:38:21.342Z,19.13
2022-08-03T23:40:37.870Z,19.20
2022-08-03T23:43:06.283Z,19.16
2022-08-03T23:45:37.754Z,19.16
2022-08-03T23:48:05.790Z,19.15
2022-08-03T23:50:44.657Z,18.67
2022-08-03T23:53:26.662Z,18.82
2022-08-03T23:56:29.476Z,19.08
2022-08-03T23:59:05.982Z,19.02
